Time;durP1;ratioP1;P1;durP2;ratioP2;P2;SDS_P1;SDS_P2;PMS_P1;PMS_P2;Temp;Humidity;BMP_temperature;BMP_pressure;BME280_temperature;BME280_humidity;BME280_pressure;Samples;Min_cycle;Max_cycle;Signal;HPM_P1;HPM_P2
2022/09/27 00:01:01;;;;;;;;;3.00;2.75;;;;;13.71;52.79;99897.22;5052811;28;45459;-56
2022/09/27 00:03:27;;;;;;;;;3.00;3.00;;;;;13.70;52.96;99905.19;5038991;28;45332;-56
2022/09/27 00:06:10;;;;;;;;;4.00;4.00;;;;;13.68;52.60;99907.06;5039056;28;45536;-56
2022/09/27 00:08:36;;;;;;;;;3.50;2.50;;;;;13.65;53.06;99913.31;5040764;28;45290;-55
2022/09/27 00:11:09;;;;;;;;;2.75;2.00;;;;;13.64;52.93;99911.59;5042666;28;45388;-55
2022/09/27 00:13:34;;;;;;;;;5.25;3.00;;;;;13.61;53.19;99911.69;5042617;28;45424;-56
2022/09/27 00:16:04;;;;;;;;;4.00;3.00;;;;;13.62;52.96;99910.78;5042319;28;45244;-55
2022/09/27 00:18:30;;;;;;;;;7.00;3.00;;;;;13.62;52.85;99909.03;5042223;28;45375;-56
2022/09/27 00:20:56;;;;;;;;;2.00;2.00;;;;;13.57;52.90;99912.75;5042716;28;45262;-56
2022/09/27 00:23:21;;;;;;;;;4.75;4.75;;;;;13.60;52.87;99915.28;5023855;28;45229;-56
2022/09/27 00:25:59;;;;;;;;;3.25;2.25;;;;;13.56;53.13;99919.81;5042555;28;46011;-56
2022/09/27 00:28:25;;;;;;;;;4.00;3.00;;;;;13.54;52.85;99912.88;5042152;28;46457;-56
2022/09/27 00:30:51;;;;;;;;;3.00;1.50;;;;;13.53;52.84;99913.81;5042637;28;45270;-55
2022/09/27 00:33:16;;;;;;;;;3.00;3.00;;;;;13.46;53.00;99908.75;5037753;28;45434;-55
2022/09/27 00:35:42;;;;;;;;;3.00;3.00;;;;;13.48;52.77;99914.84;5042254;28;45934;-56
2022/09/27 00:38:07;;;;;;;;;2.75;2.75;;;;;13.48;52.84;99919.25;5007739;28;45400;-56
2022/09/27 00:40:33;;;;;;;;;2.25;1.25;;;;;13.45;52.60;99924.66;5042231;28;45387;-56
2022/09/27 00:42:58;;;;;;;;;6.50;2.50;;;;;13.43;52.82;99924.72;5041902;28;45317;-56
2022/09/27 00:45:24;;;;;;;;;2.00;2.00;;;;;13.42;53.05;99930.03;5042317;28;45355;-55
2022/09/27 00:47:56;;;;;;;;;2.00;2.00;;;;;13.40;52.90;99930.13;5041831;28;45342;-56
2022/09/27 00:50:38;;;;;;;;;4.00;3.50;;;;;13.42;52.96;99932.69;5042231;28;45325;-56
2022/09/27 00:53:32;;;;;;;;;3.75;3.75;;;;;13.41;52.93;99925.69;5041820;28;45171;-56
2022/09/27 00:56:06;;;;;;;;;3.00;3.00;;;;;13.38;53.14;99942.50;5039724;28;45372;-56
2022/09/27 00:58:38;;;;;;;;;4.25;3.00;;;;;13.37;53.24;99937.25;5041671;28;45241;-56
2022/09/27 01:01:09;;;;;;;;;3.25;1.75;;;;;13.36;53.38;99938.16;5055122;28;45316;-56
2022/09/27 01:03:46;;;;;;;;;3.50;3.00;;;;;13.31;53.37;99939.22;5041542;28;45537;-56
2022/09/27 01:06:13;;;;;;;;;3.75;3.75;;;;;13.31;53.09;99944.50;5041474;28;46324;-56
2022/09/27 01:08:38;;;;;;;;;3.50;2.25;;;;;13.29;53.31;99948.94;5023735;28;45361;-55
2022/09/27 01:11:20;;;;;;;;;2.75;2.75;;;;;13.30;53.57;99948.03;5041669;28;45548;-56
2022/09/27 01:14:02;;;;;;;;;4.75;3.75;;;;;13.28;53.53;99946.38;5041583;28;45349;-56
2022/09/27 01:16:43;;;;;;;;;4.50;2.50;;;;;13.25;53.39;99942.09;5041615;28;46231;-56
2022/09/27 01:19:34;;;;;;;;;4.00;3.00;;;;;13.25;53.86;99949.16;5041027;28;45253;-56
2022/09/27 01:22:31;;;;;;;;;5.00;4.00;;;;;13.22;53.74;99954.53;5023707;28;45281;-56
2022/09/27 01:25:06;;;;;;;;;3.00;1.00;;;;;13.19;53.52;99954.66;5035557;28;45383;-56
2022/09/27 01:27:43;;;;;;;;;3.00;3.00;;;;;13.15;53.48;99946.84;5048616;28;46266;-55
2022/09/27 01:30:18;;;;;;;;;3.75;3.75;;;;;13.14;53.61;99950.41;5061385;28;45436;-55
2022/09/27 01:32:50;;;;;;;;;4.50;3.25;;;;;13.14;53.49;99950.41;5061452;28;45320;-55
2022/09/27 01:35:23;;;;;;;;;5.25;2.75;;;;;13.14;53.65;99950.41;5043244;28;45592;-55
2022/09/27 01:38:22;;;;;;;;;3.50;2.75;;;;;13.10;53.63;99950.59;5061361;28;45984;-56
2022/09/27 01:41:05;;;;;;;;;4.00;2.75;;;;;13.10;53.84;99955.84;5043095;28;46125;-56
2022/09/27 01:44:14;;;;;;;;;2.00;1.00;;;;;13.07;53.74;99948.91;5061178;28;45257;-56
2022/09/27 01:46:49;;;;;;;;;3.00;2.00;;;;;13.07;53.76;99955.94;5060888;28;45377;-55
2022/09/27 01:49:20;;;;;;;;;2.00;2.00;;;;;13.07;53.87;99958.59;5061175;28;47186;-56
2022/09/27 01:51:58;;;;;;;;;2.25;2.25;;;;;13.05;54.19;99961.28;5061201;28;45363;-56
2022/09/27 01:54:33;;;;;;;;;3.25;2.75;;;;;13.03;53.98;99951.72;5061125;28;45262;-56
2022/09/27 01:57:01;;;;;;;;;4.25;1.75;;;;;13.04;53.91;99954.28;5057830;28;45462;-56
2022/09/27 01:59:34;;;;;;;;;5.50;3.00;;;;;13.01;53.91;99949.16;5043994;28;46777;-56
2022/09/27 02:02:06;;;;;;;;;1.75;1.00;;;;;12.97;54.13;99951.03;5049797;28;45382;-55
2022/09/27 02:04:34;;;;;;;;;1.00;1.00;;;;;12.98;54.18;99954.50;5040816;28;45322;-55
2022/09/27 02:07:26;;;;;;;;;1.00;1.00;;;;;12.97;53.90;99956.31;5041018;28;45350;-56
2022/09/27 02:09:57;;;;;;;;;3.00;1.25;;;;;12.96;54.02;99954.56;5040785;28;46998;-56
2022/09/27 02:12:30;;;;;;;;;3.00;2.00;;;;;12.93;54.20;99954.69;5040671;28;45257;-56
2022/09/27 02:15:03;;;;;;;;;4.00;4.00;;;;;12.94;54.04;99963.47;5040969;28;45437;-56
2022/09/27 02:17:52;;;;;;;;;1.00;1.00;;;;;12.94;54.05;99959.06;5040364;28;45339;-56
2022/09/27 02:20:29;;;;;;;;;1.00;1.00;;;;;12.91;54.04;99953.88;5040321;28;45307;-57
2022/09/27 02:23:07;;;;;;;;;5.75;1.75;;;;;12.91;53.74;99948.63;5021929;28;45350;-56
2022/09/27 02:25:45;;;;;;;;;2.00;2.00;;;;;12.92;53.80;99947.69;5040483;28;45292;-56
2022/09/27 02:28:22;;;;;;;;;2.00;2.00;;;;;12.92;53.98;99941.59;5040563;28;45269;-56
2022/09/27 02:30:47;;;;;;;;;3.25;3.25;;;;;12.89;54.01;99945.16;5040490;28;45364;-56
2022/09/27 02:33:13;;;;;;;;;0.75;0.75;;;;;12.89;54.03;99939.03;5040135;28;45249;-56
2022/09/27 02:35:38;;;;;;;;;1.00;1.00;;;;;12.90;53.75;99943.41;5040805;28;45167;-55
2022/09/27 02:38:06;;;;;;;;;2.75;2.25;;;;;12.87;53.79;99928.56;5040257;28;45564;-57
2022/09/27 02:40:35;;;;;;;;;2.00;2.00;;;;;12.90;53.88;99941.63;5040337;28;45337;-55
2022/09/27 02:43:04;;;;;;;;;1.00;1.00;;;;;12.91;53.75;99942.50;5040064;28;45276;-56
2022/09/27 02:45:38;;;;;;;;;2.00;1.00;;;;;12.89;53.76;99936.41;5022403;28;45319;-55
2022/09/27 02:48:09;;;;;;;;;1.00;1.00;;;;;12.92;53.69;99946.84;5021899;28;45788;-55
2022/09/27 02:50:56;;;;;;;;;5.50;2.50;;;;;12.92;54.04;99950.34;5040115;28;46252;-54
2022/09/27 02:53:28;;;;;;;;;4.00;2.00;;;;;12.90;53.75;99949.53;5040031;28;45238;-55
2022/09/27 02:55:54;;;;;;;;;2.00;2.00;;;;;12.89;54.16;99945.16;5040172;28;45378;-56
2022/09/27 02:58:49;;;;;;;;;4.75;1.50;;;;;12.89;53.77;99944.31;5039860;28;45261;-56
2022/09/27 03:01:23;;;;;;;;;4.00;1.00;;;;;12.89;53.62;99954.88;5015647;28;47250;-56
2022/09/27 03:04:07;;;;;;;;;2.00;2.00;;;;;12.87;54.11;99949.66;5039758;28;45355;-55
2022/09/27 03:06:35;;;;;;;;;2.25;2.25;;;;;12.85;54.06;99943.56;5048412;28;45370;-56
2022/09/27 03:09:00;;;;;;;;;4.00;2.25;;;;;12.88;54.30;99954.00;5059860;28;45495;-55
2022/09/27 03:11:25;;;;;;;;;1.00;1.00;;;;;12.85;54.14;99948.84;5060036;28;45354;-55
2022/09/27 03:13:51;;;;;;;;;1.25;1.25;;;;;12.79;54.32;99949.06;5059794;28;45257;-56
2022/09/27 03:16:16;;;;;;;;;3.00;1.25;;;;;12.79;54.17;99949.06;5060240;28;45340;-58
2022/09/27 03:18:42;;;;;;;;;5.25;2.00;;;;;12.77;54.22;99945.63;5059630;28;45325;-56
2022/09/27 03:21:07;;;;;;;;;2.50;2.50;;;;;12.75;54.33;99947.44;5059893;28;45340;-57
2022/09/27 03:23:33;;;;;;;;;2.50;2.00;;;;;12.74;54.52;99941.34;5059863;28;45239;-57
2022/09/27 03:25:58;;;;;;;;;1.25;1.25;;;;;12.74;54.35;99945.72;5060225;28;45476;-56
2022/09/27 03:28:24;;;;;;;;;6.75;2.75;;;;;12.72;54.45;99944.94;5059612;28;45415;-56
2022/09/27 03:30:50;;;;;;;;;1.25;1.00;;;;;12.71;54.75;99943.22;5059747;28;46169;-56
2022/09/27 03:33:15;;;;;;;;;3.50;2.75;;;;;12.72;54.70;99942.31;5059392;28;45281;-56
2022/09/27 03:35:42;;;;;;;;;3.50;1.75;;;;;12.71;54.65;99949.34;5059951;28;45439;-56
2022/09/27 03:38:08;;;;;;;;;2.50;2.50;;;;;12.68;54.70;99966.13;5059589;28;45267;-56
2022/09/27 03:40:33;;;;;;;;;2.50;1.50;;;;;12.68;54.57;99954.72;5059374;28;46550;-57
2022/09/27 03:42:59;;;;;;;;;1.00;1.00;;;;;12.70;54.93;99955.50;5060207;28;45339;-57
2022/09/27 03:45:24;;;;;;;;;3.50;1.50;;;;;12.71;55.18;99949.34;5045292;28;45447;-57
2022/09/27 03:47:50;;;;;;;;;2.75;2.25;;;;;12.67;55.41;99956.47;5062887;28;45261;-57
2022/09/27 03:50:15;;;;;;;;;2.50;1.00;;;;;12.69;55.34;99956.41;5063151;28;46128;-58
2022/09/27 03:52:44;;;;;;;;;2.25;2.00;;;;;12.66;55.20;99949.47;5044914;28;45305;-58
2022/09/27 03:55:11;;;;;;;;;2.00;2.00;;;;;12.65;55.31;99953.06;5063484;28;45403;-57
2022/09/27 03:57:36;;;;;;;;;6.25;1.50;;;;;12.67;55.14;99950.38;5054262;28;45478;-58
2022/09/27 04:00:04;;;;;;;;;1.00;1.00;;;;;12.65;55.26;99946.91;5044394;28;46012;-58
2022/09/27 04:02:29;;;;;;;;;3.50;2.00;;;;;12.63;55.29;99943.50;5047534;28;45285;-58
2022/09/27 04:04:54;;;;;;;;;5.25;1.50;;;;;12.65;55.24;99947.78;5042792;28;45388;-57
2022/09/27 04:07:20;;;;;;;;;3.75;2.00;;;;;12.65;55.39;99947.78;5042616;28;45400;-58
2022/09/27 04:09:45;;;;;;;;;1.75;1.75;;;;;12.61;55.44;99946.16;5042791;28;45893;-57
2022/09/27 04:12:11;;;;;;;;;4.00;3.50;;;;;12.59;55.44;99932.19;5042534;28;45317;-57
2022/09/27 04:14:37;;;;;;;;;4.00;1.50;;;;;12.59;55.44;99931.31;5042984;28;45266;-57
2022/09/27 04:17:02;;;;;;;;;4.00;2.00;;;;;12.55;55.32;99929.72;5042285;28;45241;-58
2022/09/27 04:19:27;;;;;;;;;4.00;2.00;;;;;12.52;55.48;99925.41;5024699;28;47254;-58
2022/09/27 04:21:53;;;;;;;;;2.00;2.00;;;;;12.51;55.41;99928.94;5042477;28;45261;-57
2022/09/27 04:24:18;;;;;;;;;1.25;1.25;;;;;12.50;55.25;99927.22;5043069;28;45281;-58
2022/09/27 04:26:43;;;;;;;;;3.50;2.75;;;;;12.49;55.48;99930.78;5042447;28;45303;-57
2022/09/27 04:29:09;;;;;;;;;2.50;2.50;;;;;12.48;55.36;99929.91;5042228;28;46234;-57
2022/09/27 04:31:36;;;;;;;;;2.00;2.00;;;;;12.49;55.61;99918.47;5042168;28;45224;-57
2022/09/27 04:34:03;;;;;;;;;4.00;2.00;;;;;12.47;55.40;99922.94;5042510;28;45371;-58
2022/09/27 04:36:29;;;;;;;;;4.50;2.00;;;;;12.48;55.62;99926.44;5042107;28;45552;-57
2022/09/27 04:38:56;;;;;;;;;1.75;1.00;;;;;12.48;55.49;99923.81;5035369;28;47047;-57
2022/09/27 04:41:23;;;;;;;;;8.50;6.00;;;;;12.44;55.60;99924.81;5048095;28;45253;-57
2022/09/27 04:43:53;;;;;;;;;1.00;1.00;;;;;12.43;55.48;99921.31;5024075;28;45254;-57
2022/09/27 04:46:20;;;;;;;;;2.00;2.00;;;;;12.44;55.60;99927.44;5041892;28;45463;-57
2022/09/27 04:48:46;;;;;;;;;2.50;2.50;;;;;12.43;55.76;99918.69;5042098;28;45262;-57
2022/09/27 04:51:12;;;;;;;;;1.00;1.00;;;;;12.43;55.81;99923.09;5041962;28;45404;-56
2022/09/27 04:53:38;;;;;;;;;1.00;1.00;;;;;12.45;56.03;99924.78;5042038;28;45254;-57
2022/09/27 04:56:05;;;;;;;;;3.00;2.00;;;;;12.45;55.97;99926.53;5040736;28;45170;-57
2022/09/27 04:58:35;;;;;;;;;1.00;0.75;;;;;12.45;55.89;99926.53;5041699;28;47190;-57
2022/09/27 05:01:02;;;;;;;;;1.00;1.00;;;;;12.44;55.62;99924.81;5055053;28;45446;-57
2022/09/27 05:03:29;;;;;;;;;3.00;2.00;;;;;12.40;55.76;99913.53;5041834;28;45330;-60
2022/09/27 05:05:54;;;;;;;;;2.25;2.25;;;;;12.43;55.73;99916.06;5041655;28;45474;-57
2022/09/27 05:08:20;;;;;;;;;3.50;1.50;;;;;12.44;55.66;99923.03;5041583;28;46051;-57
2022/09/27 05:10:46;;;;;;;;;1.00;1.00;;;;;12.46;55.71;99920.34;5041728;28;45226;-57
2022/09/27 05:13:12;;;;;;;;;1.00;0.75;;;;;12.46;55.71;99920.34;5041964;28;45392;-57
2022/09/27 05:15:38;;;;;;;;;2.00;1.50;;;;;12.46;55.86;99915.94;5041721;28;45392;-56
2022/09/27 05:18:04;;;;;;;;;3.75;3.00;;;;;12.51;55.98;99918.41;5041397;28;46036;-57
2022/09/27 05:20:29;;;;;;;;;2.25;1.00;;;;;12.51;55.97;99915.78;5023494;28;45329;-57
2022/09/27 05:22:54;;;;;;;;;2.00;2.00;;;;;12.51;55.97;99918.41;5041784;28;45767;-56
2022/09/27 05:25:20;;;;;;;;;2.75;2.25;;;;;12.56;55.88;99926.16;5041269;28;45515;-57
2022/09/27 05:27:46;;;;;;;;;2.75;2.00;;;;;12.57;55.91;99941.91;5023686;28;45338;-57
2022/09/27 05:30:11;;;;;;;;;2.00;1.25;;;;;12.57;55.92;99939.28;5020351;28;45235;-57
2022/09/27 05:32:45;;;;;;;;;3.50;2.50;;;;;12.59;55.96;99934.81;5023411;28;45341;-58
2022/09/27 05:35:11;;;;;;;;;0.50;0.50;;;;;12.62;55.81;99944.41;5041336;28;45521;-58
2022/09/27 05:37:37;;;;;;;;;2.00;2.00;;;;;12.65;56.06;99942.53;5041073;28;46940;-57
2022/09/27 05:40:03;;;;;;;;;1.00;1.00;;;;;12.67;56.41;99935.41;5041031;28;45230;-57
2022/09/27 05:42:28;;;;;;;;;2.50;2.00;;;;;12.66;56.25;99930.19;5041242;28;45447;-57
2022/09/27 05:44:53;;;;;;;;;1.00;1.00;;;;;12.68;56.12;99925.72;5041107;28;45297;-57
2022/09/27 05:47:18;;;;;;;;;1.00;1.00;;;;;12.68;56.06;99926.59;5023100;28;46303;-57
2022/09/27 05:49:44;;;;;;;;;2.00;2.00;;;;;12.67;56.24;99937.19;5040990;28;45253;-57
2022/09/27 05:52:09;;;;;;;;;3.00;1.00;;;;;12.67;56.07;99935.41;5041280;28;45312;-57
2022/09/27 05:54:35;;;;;;;;;2.00;1.75;;;;;12.69;56.24;99943.25;5041140;28;45408;-57
2022/09/27 05:57:00;;;;;;;;;3.50;1.00;;;;;12.68;56.29;99945.03;5040952;28;46610;-57
2022/09/27 05:59:26;;;;;;;;;3.50;2.00;;;;;12.71;56.17;99946.69;5025856;28;46184;-57
2022/09/27 06:01:53;;;;;;;;;2.50;1.50;;;;;12.70;55.99;99938.84;5032994;28;45428;-57
2022/09/27 06:04:19;;;;;;;;;3.00;2.00;;;;;12.70;56.35;99925.66;5041286;28;45486;-57
2022/09/27 06:06:45;;;;;;;;;2.50;2.50;;;;;12.74;56.25;99932.53;5040277;28;45361;-57
2022/09/27 06:09:12;;;;;;;;;2.75;1.75;;;;;12.76;56.17;99938.63;5041222;28;47676;-57
2022/09/27 06:11:37;;;;;;;;;2.00;2.00;;;;;12.80;56.64;99932.31;5047843;28;45222;-57
2022/09/27 06:14:03;;;;;;;;;3.75;2.00;;;;;12.78;56.30;99918.31;5045925;28;45554;-57
2022/09/27 06:16:29;;;;;;;;;3.50;2.75;;;;;12.79;56.53;99909.50;5046821;28;45344;-57
2022/09/27 06:18:54;;;;;;;;;5.50;4.50;;;;;12.79;56.12;99910.38;5032175;28;45431;-56
2022/09/27 06:21:20;;;;;;;;;4.25;2.00;;;;;12.78;56.31;99913.06;5051471;28;45530;-57
2022/09/27 06:23:46;;;;;;;;;2.25;2.00;;;;;12.75;56.35;99907.91;5053583;28;45314;-57
2022/09/27 06:26:11;;;;;;;;;3.00;2.00;;;;;12.85;56.23;99922.47;5048027;28;46080;-56
2022/09/27 06:28:37;;;;;;;;;2.50;1.25;;;;;12.84;56.57;99933.94;5051375;28;45470;-56
2022/09/27 06:31:05;;;;;;;;;3.00;3.00;;;;;12.87;56.31;99933.81;5047046;28;45531;-57
2022/09/27 06:33:31;;;;;;;;;2.50;2.50;;;;;12.87;56.26;99936.47;5035040;28;45358;-57
2022/09/27 06:36:00;;;;;;;;;2.75;2.75;;;;;12.86;56.34;99923.34;5041890;28;45434;-54
2022/09/27 06:38:25;;;;;;;;;5.00;4.00;;;;;12.88;56.53;99930.28;5052132;28;45296;-54
2022/09/27 06:40:51;;;;;;;;;6.00;2.50;;;;;12.87;56.61;99927.69;5053322;28;45544;-53
2022/09/27 06:43:19;;;;;;;;;1.25;1.25;;;;;12.88;56.39;99926.75;5047017;28;45617;-51
2022/09/27 06:45:46;;;;;;;;;3.00;3.00;;;;;12.92;56.29;99917.84;5046374;28;46397;-51
2022/09/27 06:48:14;;;;;;;;;3.75;2.75;;;;;12.96;56.48;99922.09;5057909;28;45392;-56
2022/09/27 06:50:42;;;;;;;;;4.00;2.00;;;;;12.96;56.53;99928.22;5060070;28;45340;-55
2022/09/27 06:53:10;;;;;;;;;4.50;1.50;;;;;12.93;56.58;99927.47;5059499;28;45277;-56
2022/09/27 06:55:36;;;;;;;;;2.00;2.00;;;;;12.92;56.59;99921.34;5059681;28;47232;-57
2022/09/27 07:00:53;;;;;;;;;2.00;2.00;;;;;13.00;56.61;99931.59;5053699;28;45469;-57
2022/09/27 07:03:21;;;;;;;;;2.00;2.00;;;;;13.00;56.62;99939.50;5039839;28;46532;-57
2022/09/27 07:05:58;;;;;;;;;4.75;3.00;;;;;13.01;56.82;99925.41;5021880;28;47441;-55
2022/09/27 07:08:27;;;;;;;;;3.25;2.00;;;;;13.04;56.66;99924.44;5022049;28;45427;-57
2022/09/27 07:11:01;;;;;;;;;2.00;2.00;;;;;13.08;56.83;99932.19;5039908;28;45403;-56
2022/09/27 07:13:33;;;;;;;;;2.00;2.00;;;;;13.10;56.85;99940.03;5042891;28;45522;-57
2022/09/27 07:15:59;;;;;;;;;4.00;3.50;;;;;13.11;56.76;99949.66;5040716;28;46287;-56
2022/09/27 07:18:25;;;;;;;;;1.00;1.00;;;;;13.10;56.65;99946.16;5038340;28;45289;-56
2022/09/27 07:20:50;;;;;;;;;7.25;3.00;;;;;13.16;56.58;99951.19;5056199;28;45262;-57
2022/09/27 07:23:16;;;;;;;;;3.00;1.50;;;;;13.20;56.99;99940.56;5059883;28;45438;-56
2022/09/27 07:25:41;;;;;;;;;4.50;4.00;;;;;13.17;56.81;99958.19;5059681;28;45428;-56
2022/09/27 07:28:13;;;;;;;;;1.00;0.50;;;;;13.20;56.59;99964.28;5059711;28;45398;-55
2022/09/27 07:30:38;;;;;;;;;1.75;0.50;;;;;13.16;56.81;99959.13;5041760;28;45456;-57
2022/09/27 07:33:05;;;;;;;;;4.00;1.75;;;;;13.21;56.83;99966.03;5059610;28;45305;-54
2022/09/27 07:35:30;;;;;;;;;4.50;2.00;;;;;13.20;56.71;99970.41;5059448;28;45431;-56
2022/09/27 07:37:57;;;;;;;;;3.50;2.00;;;;;13.20;56.67;99972.22;5059802;28;45594;-55
2022/09/27 07:40:23;;;;;;;;;4.75;3.00;;;;;13.25;56.73;99979.03;5059524;28;45328;-55
2022/09/27 07:42:55;;;;;;;;;4.00;3.00;;;;;13.29;56.73;99979.78;5059451;28;45455;-55
2022/09/27 07:45:22;;;;;;;;;3.50;2.00;;;;;13.31;56.57;99980.59;5041562;28;48597;-55
2022/09/27 07:47:47;;;;;;;;;2.00;2.00;;;;;13.36;56.81;99988.31;5045337;28;45353;-56
2022/09/27 07:50:13;;;;;;;;;3.00;2.00;;;;;13.41;56.62;99986.38;5039611;28;45396;-58
2022/09/27 07:52:43;;;;;;;;;4.00;2.00;;;;;13.46;56.38;99985.31;5039439;28;45400;-56
2022/09/27 07:55:10;;;;;;;;;3.00;1.75;;;;;13.49;56.79;99987.81;5039631;28;46459;-56
2022/09/27 07:57:36;;;;;;;;;3.25;2.00;;;;;13.54;56.81;100000.00;5039231;28;45320;-56
2022/09/27 08:00:08;;;;;;;;;1.00;0.00;;;;;13.54;56.43;99992.06;5022553;28;45424;-56
2022/09/27 08:02:34;;;;;;;;;2.25;1.75;;;;;13.55;56.73;99989.38;5059273;28;45273;-56
2022/09/27 08:04:59;;;;;;;;;2.50;1.25;;;;;13.58;56.79;99993.66;5059167;28;46246;-55
2022/09/27 08:07:25;;;;;;;;;2.00;2.00;;;;;13.61;56.71;99999.69;5059393;28;45201;-55
2022/09/27 08:09:51;;;;;;;;;3.25;1.50;;;;;13.67;56.46;100001.22;5059491;28;45721;-55
2022/09/27 08:12:17;;;;;;;;;2.00;2.00;;;;;13.68;56.57;100002.94;5040690;28;45354;-56
2022/09/27 08:14:42;;;;;;;;;2.25;1.75;;;;;13.72;56.34;100004.56;5059290;28;45434;-56
2022/09/27 08:17:11;;;;;;;;;2.50;1.50;;;;;13.73;56.38;100008.06;5059139;28;45431;-56
2022/09/27 08:19:36;;;;;;;;;2.00;2.00;;;;;13.79;56.43;100015.75;5059340;28;45304;-55
2022/09/27 08:22:01;;;;;;;;;3.00;2.00;;;;;13.85;56.24;100010.22;5059183;28;45213;-56
2022/09/27 08:24:28;;;;;;;;;4.25;2.50;;;;;13.87;56.46;100021.56;5044161;28;45661;-55
2022/09/27 08:26:53;;;;;;;;;4.75;3.00;;;;;13.92;56.48;100027.56;5039089;28;45277;-54
2022/09/27 08:29:19;;;;;;;;;3.50;2.00;;;;;13.95;55.83;100008.94;5040103;28;45372;-57
2022/09/27 08:31:44;;;;;;;;;1.75;1.00;;;;;14.03;56.29;100010.41;5042442;28;45325;-54
2022/09/27 08:34:09;;;;;;;;;2.50;2.00;;;;;14.06;56.24;100019.09;5024260;28;47445;-55
2022/09/27 08:36:36;;;;;;;;;3.00;2.00;;;;;14.09;56.16;100020.75;5042526;28;45267;-56
2022/09/27 08:39:03;;;;;;;;;3.25;3.25;;;;;14.14;55.73;100026.69;5042161;28;45405;-56
2022/09/27 08:41:52;;;;;;;;;4.50;1.00;;;;;14.20;55.69;100021.16;5024428;28;45471;-56
2022/09/27 08:44:38;;;;;;;;;5.75;2.25;;;;;14.25;55.73;100016.53;5041941;28;45546;-57
2022/09/27 08:47:26;;;;;;;;;3.75;2.75;;;;;14.29;55.44;100028.69;5041773;28;45245;-54
2022/09/27 08:50:21;;;;;;;;;2.75;2.50;;;;;14.32;55.46;100033.00;5042305;28;45562;-54
2022/09/27 08:53:13;;;;;;;;;2.00;2.00;;;;;14.39;55.74;100031.84;5050363;28;45257;-57
2022/09/27 08:55:50;;;;;;;;;1.50;1.50;;;;;14.45;55.27;100033.34;5040787;28;48401;-56
2022/09/27 08:58:25;;;;;;;;;1.75;1.75;;;;;14.47;55.98;100035.00;5048008;28;45410;-55
2022/09/27 09:00:54;;;;;;;;;5.00;3.00;;;;;14.50;55.70;100036.66;5049492;28;45282;-56
2022/09/27 09:03:23;;;;;;;;;2.00;2.00;;;;;14.52;55.43;100036.63;5060789;28;45444;-55
2022/09/27 09:06:23;;;;;;;;;5.00;2.75;;;;;14.54;55.25;100026.81;5061757;28;46091;-54
2022/09/27 09:09:01;;;;;;;;;3.00;2.00;;;;;14.54;55.82;100046.19;5039188;28;45494;-52
2022/09/27 09:15:06;;;;;;;;;1.50;1.50;;;;;14.59;55.26;100038.06;5061776;28;45422;-54
2022/09/27 09:17:49;;;;;;;;;2.75;1.00;;;;;14.62;55.73;100037.94;5061576;28;46648;-56
2022/09/27 09:20:46;;;;;;;;;3.00;3.00;;;;;14.60;55.53;100014.22;5043582;28;45229;-55
2022/09/27 09:23:46;;;;;;;;;2.25;2.00;;;;;14.68;55.45;100020.97;5057914;28;45459;-57
2022/09/27 09:26:56;;;;;;;;;2.50;1.00;;;;;14.68;55.04;100013.91;5041664;28;45255;-54
2022/09/27 09:29:49;;;;;;;;;3.75;1.50;;;;;14.74;55.42;100021.59;5025906;28;45283;-54
2022/09/27 09:32:45;;;;;;;;;4.25;1.75;;;;;14.77;54.84;100025.88;5011058;28;45346;-56
2022/09/27 09:35:20;;;;;;;;;1.00;1.00;;;;;14.76;55.14;100019.72;5050635;28;45570;-56
2022/09/27 09:37:51;;;;;;;;;2.00;2.00;;;;;14.79;55.15;100018.72;5061315;28;45398;-56
2022/09/27 09:40:42;;;;;;;;;1.75;1.75;;;;;14.86;55.46;100011.41;5060473;28;46375;-56
2022/09/27 09:43:31;;;;;;;;;2.25;1.75;;;;;14.90;54.78;100010.34;5043152;28;45550;-55
2022/09/27 09:46:06;;;;;;;;;2.50;1.25;;;;;14.88;54.74;100005.13;5037014;28;45508;-56
2022/09/27 09:48:41;;;;;;;;;2.50;1.00;;;;;14.88;55.29;99997.19;5061091;28;45391;-56
2022/09/27 09:51:18;;;;;;;;;3.75;3.00;;;;;14.95;54.88;100003.94;5061322;28;45256;-57
2022/09/27 09:54:07;;;;;;;;;1.50;1.50;;;;;15.01;55.07;99997.50;5042954;28;45281;-57
2022/09/27 09:56:38;;;;;;;;;3.25;1.50;;;;;15.11;54.77;99995.31;5061272;28;45328;-56
2022/09/27 09:59:23;;;;;;;;;1.75;1.75;;;;;15.17;54.52;99991.50;5060307;28;45245;-57
2022/09/27 10:01:49;;;;;;;;;0.25;0.25;;;;;15.23;54.75;99988.59;5060903;28;45291;-54
2022/09/27 10:04:19;;;;;;;;;3.75;2.00;;;;;15.33;54.74;99983.72;5060946;28;45220;-55
2022/09/27 10:06:44;;;;;;;;;1.75;1.75;;;;;15.37;54.79;99980.00;5042949;28;45346;-55
2022/09/27 10:09:21;;;;;;;;;1.50;1.50;;;;;15.47;54.63;99968.09;5060902;28;45296;-55
2022/09/27 10:11:47;;;;;;;;;0.75;0.75;;;;;15.56;54.57;99969.44;5042889;28;48257;-55
2022/09/27 10:14:15;;;;;;;;;2.75;1.25;;;;;15.66;54.19;99968.06;5060599;28;45348;-55
2022/09/27 10:16:47;;;;;;;;;1.00;1.00;;;;;15.75;54.71;99972.06;5060707;28;45353;-54
2022/09/27 10:19:16;;;;;;;;;1.25;1.25;;;;;15.81;54.15;99960.31;5060673;28;45368;-56
2022/09/27 10:21:44;;;;;;;;;3.25;1.75;;;;;15.89;54.10;99966.97;5042384;28;46098;-55
2022/09/27 10:24:13;;;;;;;;;2.00;0.25;;;;;15.98;54.30;99968.31;5047822;28;45470;-55
2022/09/27 10:26:44;;;;;;;;;2.50;0.75;;;;;16.04;53.84;99961.88;5022763;28;45250;-55
2022/09/27 10:29:13;;;;;;;;;1.00;1.00;;;;;16.07;53.63;99959.94;5040326;28;45396;-55
2022/09/27 10:31:44;;;;;;;;;6.00;1.00;;;;;16.11;53.75;99957.97;5034443;28;48093;-55
2022/09/27 10:34:36;;;;;;;;;2.75;1.25;;;;;16.17;53.54;99952.38;5045279;28;45555;-55
2022/09/27 10:37:11;;;;;;;;;1.25;1.00;;;;;16.25;53.33;99960.81;5039932;28;45367;-56
2022/09/27 10:39:37;;;;;;;;;1.00;1.00;;;;;16.29;53.51;99953.56;5040239;28;45577;-56
2022/09/27 10:42:32;;;;;;;;;2.75;0.25;;;;;16.37;53.51;99947.88;5040140;28;45332;-56
2022/09/27 10:45:06;;;;;;;;;2.00;2.00;;;;;16.32;53.37;99945.44;5050000;28;45361;-56
2022/09/27 10:47:32;;;;;;;;;2.75;2.00;;;;;16.30;53.32;99946.44;5060270;28;45528;-56
2022/09/27 10:50:06;;;;;;;;;2.00;2.00;;;;;16.31;53.53;99949.03;5025523;28;45607;-56
2022/09/27 10:52:32;;;;;;;;;2.00;1.75;;;;;16.26;53.28;99953.69;5060050;28;46219;-56
2022/09/27 10:55:20;;;;;;;;;1.75;0.75;;;;;16.15;53.46;99963.97;5060286;28;45280;-56
2022/09/27 10:57:51;;;;;;;;;3.00;2.25;;;;;16.07;53.41;99969.66;5050656;28;45418;-57
2022/09/27 11:00:31;;;;;;;;;4.00;2.25;;;;;15.98;53.60;99970.13;5042677;28;45476;-57
2022/09/27 11:03:04;;;;;;;;;3.50;2.25;;;;;15.75;53.80;99956.19;5059673;28;45256;-59
2022/09/27 11:05:36;;;;;;;;;6.00;4.00;;;;;15.74;53.88;99980.94;5059787;28;45402;-58
2022/09/27 11:08:25;;;;;;;;;2.50;1.75;;;;;15.60;53.95;99979.78;5060292;28;45484;-56
2022/09/27 11:11:09;;;;;;;;;0.50;0.50;;;;;15.46;54.01;99987.53;5041822;28;45728;-58
2022/09/27 11:13:35;;;;;;;;;2.25;2.25;;;;;15.39;54.21;99979.00;5041811;28;46418;-57
2022/09/27 11:16:22;;;;;;;;;1.50;1.25;;;;;15.27;54.39;99983.09;5059803;28;45256;-55
2022/09/27 11:18:54;;;;;;;;;1.00;1.00;;;;;15.19;54.40;99989.66;5042122;28;45191;-55
2022/09/27 11:22:11;;;;;;;;;2.00;2.00;;;;;15.09;53.94;99971.56;5059710;28;45408;-55
2022/09/27 11:24:57;;;;;;;;;2.25;1.00;;;;;15.05;54.25;99985.00;5012405;28;45391;-55
2022/09/27 11:27:53;;;;;;;;;2.00;1.75;;;;;15.00;54.73;99963.19;5059572;28;45534;-56
2022/09/27 11:30:20;;;;;;;;;0.50;0.50;;;;;14.94;54.55;99970.47;5059987;28;45257;-58
2022/09/27 11:32:57;;;;;;;;;2.00;1.25;;;;;14.89;54.34;99964.53;5059590;28;45226;-57
2022/09/27 11:35:31;;;;;;;;;0.00;0.00;;;;;14.91;54.81;99969.75;5059658;28;46286;-57
2022/09/27 11:38:26;;;;;;;;;1.00;1.00;;;;;14.82;54.47;99976.28;5059622;28;45359;-56
2022/09/27 11:41:10;;;;;;;;;2.25;1.25;;;;;14.78;54.42;99974.72;5059714;28;45486;-56
2022/09/27 11:44:13;;;;;;;;;3.00;2.75;;;;;14.74;54.39;99978.41;5059592;28;45213;-57
2022/09/27 11:46:40;;;;;;;;;2.00;2.00;;;;;14.73;54.63;99976.69;5059327;28;47525;-55
2022/09/27 11:49:34;;;;;;;;;2.50;1.00;;;;;14.77;54.45;99971.19;5059443;28;45333;-56
2022/09/27 11:52:02;;;;;;;;;3.00;1.00;;;;;14.78;53.98;99969.44;5059565;28;45505;-56
2022/09/27 11:55:03;;;;;;;;;2.75;1.00;;;;;14.76;54.40;99960.69;5059462;28;45423;-55
2022/09/27 11:57:44;;;;;;;;;4.50;2.00;;;;;14.73;54.38;99961.69;5051626;28;46208;-58
2022/09/27 12:00:32;;;;;;;;;4.00;2.00;;;;;14.67;54.40;99953.19;5040847;28;45493;-56